createdAt,value
2023-05-14T00:01:52.188Z,5.53
2023-05-14T00:04:20.001Z,5.97
2023-05-14T00:06:46.892Z,5.68
2023-05-14T00:09:13.846Z,5.85
2023-05-14T00:11:41.011Z,6.13
2023-05-14T00:14:07.800Z,6.05
2023-05-14T00:16:35.237Z,5.78
2023-05-14T00:19:02.743Z,6.47
2023-05-14T00:21:29.844Z,6.00
2023-05-14T00:23:56.894Z,5.63
2023-05-14T00:26:23.827Z,5.75
2023-05-14T00:28:51.000Z,6.45
2023-05-14T00:31:17.832Z,6.82
2023-05-14T00:33:44.886Z,5.82
2023-05-14T00:36:11.959Z,6.30
2023-05-14T00:38:38.915Z,6.18
2023-05-14T00:41:05.942Z,7.28
2023-05-14T00:43:33.567Z,8.75
2023-05-14T00:46:01.017Z,9.75
2023-05-14T00:48:28.007Z,9.50
2023-05-14T00:50:55.182Z,8.10
2023-05-14T00:53:22.463Z,7.85
2023-05-14T00:55:50.109Z,7.80
2023-05-14T00:58:18.624Z,7.10
2023-05-14T01:00:48.603Z,7.53
2023-05-14T01:03:16.229Z,7.65
2023-05-14T01:06:14.269Z,6.07
2023-05-14T01:08:46.790Z,7.95
2023-05-14T01:11:19.870Z,6.93
2023-05-14T01:14:18.374Z,7.18
2023-05-14T01:16:46.240Z,7.32
2023-05-14T01:19:39.441Z,7.90
2023-05-14T01:22:06.996Z,6.70
2023-05-14T01:24:37.481Z,9.30
2023-05-14T01:27:13.873Z,7.72
2023-05-14T01:29:52.285Z,8.27
2023-05-14T01:32:23.517Z,7.60
2023-05-14T01:34:51.540Z,7.20
2023-05-14T01:37:19.128Z,7.95
2023-05-14T01:39:46.684Z,7.47
2023-05-14T01:42:13.829Z,8.05
2023-05-14T01:44:41.044Z,7.75
2023-05-14T01:47:08.023Z,8.00
2023-05-14T01:49:35.058Z,8.05
2023-05-14T01:52:02.004Z,7.57
2023-05-14T01:54:31.711Z,7.97
2023-05-14T01:56:59.094Z,8.15
2023-05-14T01:59:26.462Z,8.20
2023-05-14T02:01:55.765Z,7.90
2023-05-14T02:04:22.953Z,8.48
2023-05-14T02:06:50.590Z,7.53
2023-05-14T02:09:17.532Z,9.27
2023-05-14T02:11:44.667Z,9.07
2023-05-14T02:14:11.999Z,8.60
2023-05-14T02:16:38.782Z,8.13
2023-05-14T02:19:06.660Z,8.05
2023-05-14T02:21:35.104Z,9.23
2023-05-14T02:24:02.093Z,9.30
2023-05-14T02:26:29.349Z,8.85
2023-05-14T02:28:56.658Z,8.88
2023-05-14T02:31:24.338Z,9.68
2023-05-14T02:33:51.747Z,9.75
2023-05-14T02:36:18.753Z,9.52
2023-05-14T02:38:45.699Z,9.20
2023-05-14T02:41:12.708Z,9.63
2023-05-14T02:43:39.634Z,9.27
2023-05-14T02:46:06.680Z,8.70
2023-05-14T02:48:34.075Z,9.82
2023-05-14T02:51:01.058Z,9.25
2023-05-14T02:53:28.089Z,10.02
2023-05-14T02:55:55.666Z,9.48
2023-05-14T02:58:25.483Z,9.60
2023-05-14T03:00:55.792Z,11.38
2023-05-14T03:03:23.212Z,10.98
2023-05-14T03:05:51.106Z,10.85
2023-05-14T03:08:18.180Z,12.05
2023-05-14T03:10:45.177Z,12.07
2023-05-14T03:13:12.133Z,11.75
2023-05-14T03:15:41.826Z,12.50
2023-05-14T03:18:09.026Z,11.50
2023-05-14T03:20:36.140Z,11.00
2023-05-14T03:23:02.976Z,11.23
2023-05-14T03:25:29.905Z,10.68
2023-05-14T03:27:56.787Z,10.88
2023-05-14T03:30:24.055Z,11.07
2023-05-14T03:32:51.161Z,10.35
2023-05-14T03:35:18.091Z,11.05
2023-05-14T03:37:49.969Z,10.00
2023-05-14T03:40:16.976Z,10.73
2023-05-14T03:42:43.834Z,10.73
2023-05-14T03:45:11.019Z,10.23
2023-05-14T03:47:38.081Z,10.88
2023-05-14T03:50:05.689Z,11.13
2023-05-14T03:52:32.653Z,9.68
2023-05-14T03:54:59.496Z,10.25
2023-05-14T03:57:26.408Z,8.45
2023-05-14T03:59:53.477Z,9.80
2023-05-14T04:02:30.919Z,10.40
2023-05-14T04:04:58.026Z,10.57
2023-05-14T04:07:24.848Z,10.85
2023-05-14T04:09:57.950Z,10.20
2023-05-14T04:12:24.923Z,9.23
2023-05-14T04:14:51.913Z,9.15
2023-05-14T04:17:18.932Z,9.38
2023-05-14T04:19:45.765Z,10.18
2023-05-14T04:22:12.776Z,10.07
2023-05-14T04:24:39.732Z,9.25
2023-05-14T04:27:09.535Z,9.55
2023-05-14T04:29:36.246Z,9.32
2023-05-14T04:32:03.182Z,9.52
2023-05-14T04:34:31.861Z,7.90
2023-05-14T04:36:58.886Z,7.80
2023-05-14T04:39:33.433Z,9.00
2023-05-14T04:42:00.267Z,7.53
2023-05-14T04:44:30.174Z,8.77
2023-05-14T04:46:59.552Z,7.65
2023-05-14T04:49:26.591Z,7.18
2023-05-14T04:51:53.526Z,7.13
2023-05-14T04:54:21.929Z,6.95
2023-05-14T04:56:48.700Z,6.82
2023-05-14T04:59:16.722Z,6.45
2023-05-14T05:01:45.953Z,6.47
2023-05-14T05:04:16.072Z,6.00
2023-05-14T05:06:45.878Z,5.53
2023-05-14T05:09:13.272Z,5.50
2023-05-14T05:11:42.698Z,5.25
2023-05-14T05:14:09.826Z,5.40
2023-05-14T05:16:36.790Z,5.43
2023-05-14T05:19:06.621Z,5.55
2023-05-14T05:21:34.224Z,4.75
2023-05-14T05:24:01.299Z,5.10
2023-05-14T05:26:28.326Z,5.13
2023-05-14T05:29:04.293Z,5.20
2023-05-14T05:31:32.082Z,5.18
2023-05-14T05:34:00.108Z,4.80
2023-05-14T05:36:27.084Z,4.78
2023-05-14T05:38:54.476Z,4.82
2023-05-14T05:41:21.295Z,4.95
2023-05-14T05:43:48.186Z,4.65
2023-05-14T05:46:15.667Z,5.00
2023-05-14T05:48:43.198Z,4.82
2023-05-14T05:51:12.348Z,4.40
2023-05-14T05:53:42.451Z,4.38
2023-05-14T05:56:11.071Z,4.65
2023-05-14T05:58:50.683Z,4.55
2023-05-14T06:01:20.896Z,4.50
2023-05-14T06:03:53.844Z,4.35
2023-05-14T06:06:22.006Z,4.35
2023-05-14T06:08:49.258Z,4.13
2023-05-14T06:11:17.163Z,4.35
2023-05-14T06:13:43.959Z,4.53
2023-05-14T06:16:10.882Z,4.35
2023-05-14T06:18:37.936Z,4.43
2023-05-14T06:21:14.905Z,3.72
2023-05-14T06:23:42.561Z,4.55
2023-05-14T06:26:09.246Z,3.75
2023-05-14T06:28:36.201Z,4.18
2023-05-14T06:31:03.267Z,3.92
2023-05-14T06:33:31.523Z,3.92
2023-05-14T06:36:05.038Z,4.00
2023-05-14T06:38:31.870Z,3.85
2023-05-14T06:41:06.039Z,4.25
2023-05-14T06:43:35.084Z,3.88
2023-05-14T06:46:05.101Z,3.53
2023-05-14T06:48:32.176Z,4.28
2023-05-14T06:51:00.803Z,3.75
2023-05-14T06:53:30.954Z,3.80
2023-05-14T06:55:57.974Z,3.58
2023-05-14T06:58:33.160Z,3.25
2023-05-14T07:01:00.385Z,3.40
2023-05-14T07:03:27.403Z,3.38
2023-05-14T07:05:54.345Z,3.95
2023-05-14T07:08:21.128Z,3.55
2023-05-14T07:10:48.031Z,3.70
2023-05-14T07:13:14.979Z,3.80
2023-05-14T07:15:42.020Z,3.65
2023-05-14T07:18:09.028Z,3.45
2023-05-14T07:20:35.938Z,3.90
2023-05-14T07:23:02.927Z,3.97
2023-05-14T07:25:30.037Z,3.80
2023-05-14T07:27:57.078Z,3.40
2023-05-14T07:30:23.849Z,3.88
2023-05-14T07:32:51.070Z,3.50
2023-05-14T07:35:17.931Z,3.08
2023-05-14T07:37:44.859Z,3.50
2023-05-14T07:40:16.030Z,3.88
2023-05-14T07:42:42.804Z,3.10
2023-05-14T07:45:12.743Z,3.53
2023-05-14T07:47:42.480Z,2.97
2023-05-14T07:50:21.328Z,3.25
2023-05-14T07:52:48.158Z,3.22
2023-05-14T07:55:15.153Z,3.50
2023-05-14T07:57:42.216Z,3.45
2023-05-14T08:00:10.476Z,3.17
2023-05-14T08:02:37.548Z,3.17
2023-05-14T08:05:04.978Z,3.30
2023-05-14T08:07:32.032Z,3.60
2023-05-14T08:10:05.422Z,3.33
2023-05-14T08:12:34.214Z,3.33
2023-05-14T08:15:05.528Z,3.58
2023-05-14T08:17:32.440Z,3.13
2023-05-14T08:20:05.175Z,3.38
2023-05-14T08:22:34.961Z,2.72
2023-05-14T08:25:04.055Z,3.47
2023-05-14T08:27:31.115Z,3.42
2023-05-14T08:29:58.100Z,3.17
2023-05-14T08:32:25.020Z,3.35
2023-05-14T08:34:52.584Z,3.10
2023-05-14T08:37:20.002Z,2.83
2023-05-14T08:39:47.006Z,3.10
2023-05-14T08:42:15.096Z,3.17
2023-05-14T08:44:50.517Z,3.03
2023-05-14T08:47:21.713Z,2.78
2023-05-14T08:49:55.208Z,3.60
2023-05-14T08:52:23.119Z,3.08
2023-05-14T08:54:53.818Z,2.63
2023-05-14T08:57:21.702Z,4.88
2023-05-14T08:59:48.744Z,3.00
2023-05-14T09:02:17.653Z,2.78
2023-05-14T09:04:47.784Z,2.85
2023-05-14T09:07:18.406Z,2.55
2023-05-14T09:09:46.172Z,2.45
2023-05-14T09:12:13.519Z,3.08
2023-05-14T09:14:40.390Z,2.38
2023-05-14T09:17:11.104Z,2.40
2023-05-14T09:19:40.757Z,2.15
2023-05-14T09:22:13.801Z,2.60
2023-05-14T09:24:50.058Z,2.60
2023-05-14T09:27:20.958Z,2.45
2023-05-14T09:29:48.424Z,2.70
2023-05-14T09:32:15.529Z,2.85
2023-05-14T09:34:42.630Z,2.38
2023-05-14T09:37:10.415Z,2.70
2023-05-14T09:39:39.030Z,2.50
2023-05-14T09:42:06.895Z,2.42
2023-05-14T09:44:33.998Z,2.53
2023-05-14T09:47:01.322Z,2.60
2023-05-14T09:49:28.632Z,2.78
2023-05-14T09:51:57.513Z,2.60
2023-05-14T09:54:27.044Z,2.47
2023-05-14T09:56:55.720Z,2.50
2023-05-14T09:59:22.726Z,2.80
2023-05-14T10:01:51.525Z,2.72
2023-05-14T10:04:19.511Z,2.28
2023-05-14T10:06:51.455Z,2.72
2023-05-14T10:09:23.325Z,2.22
2023-05-14T10:11:54.011Z,3.28
2023-05-14T10:14:38.978Z,3.10
2023-05-14T10:17:08.029Z,3.28
2023-05-14T10:19:37.243Z,2.53
2023-05-14T10:22:07.212Z,2.55
2023-05-14T10:24:34.753Z,2.72
2023-05-14T10:27:02.482Z,2.55
2023-05-14T10:29:37.594Z,2.80
2023-05-14T10:32:07.222Z,2.78
2023-05-14T10:34:44.534Z,2.75
2023-05-14T10:37:21.068Z,2.47
2023-05-14T10:39:54.270Z,2.70
2023-05-14T10:42:30.438Z,2.42
2023-05-14T10:45:01.772Z,2.80
2023-05-14T10:47:30.174Z,2.70
2023-05-14T10:49:59.267Z,2.50
2023-05-14T10:52:26.949Z,2.58
2023-05-14T10:54:56.403Z,2.70
2023-05-14T10:57:28.019Z,2.42
2023-05-14T10:59:59.613Z,2.60
2023-05-14T11:02:31.676Z,2.80
2023-05-14T11:05:17.301Z,2.53
2023-05-14T11:07:46.119Z,3.38
2023-05-14T11:10:17.740Z,2.53
2023-05-14T11:12:46.917Z,2.75
2023-05-14T11:15:16.256Z,2.30
2023-05-14T11:17:44.580Z,2.67
2023-05-14T11:20:12.224Z,2.47
2023-05-14T11:22:40.664Z,2.88
2023-05-14T11:25:08.927Z,2.60
2023-05-14T11:27:38.669Z,2.20
2023-05-14T11:30:12.292Z,2.70
2023-05-14T11:32:40.005Z,2.70
2023-05-14T11:35:07.365Z,2.40
2023-05-14T11:37:34.405Z,2.60
2023-05-14T11:40:02.084Z,2.80
2023-05-14T11:42:29.120Z,2.80
2023-05-14T11:44:56.167Z,2.50
2023-05-14T11:47:23.321Z,2.78
2023-05-14T11:49:50.164Z,2.72
2023-05-14T11:52:19.726Z,2.60
2023-05-14T11:54:47.260Z,2.97
2023-05-14T11:57:16.525Z,2.50
2023-05-14T11:59:43.660Z,2.65
2023-05-14T12:02:13.215Z,2.80
2023-05-14T12:04:41.802Z,2.90
2023-05-14T12:07:15.539Z,2.70
2023-05-14T12:09:50.059Z,2.83
2023-05-14T12:12:22.067Z,3.33
2023-05-14T12:14:50.779Z,3.38
2023-05-14T12:17:20.197Z,2.65
2023-05-14T12:19:49.598Z,2.63
2023-05-14T12:22:18.735Z,3.22
2023-05-14T12:24:59.562Z,2.83
2023-05-14T12:27:28.203Z,3.00
2023-05-14T12:30:20.073Z,2.75
2023-05-14T12:32:53.043Z,2.78
2023-05-14T12:35:22.111Z,2.90
2023-05-14T12:37:49.247Z,3.08
2023-05-14T12:40:16.228Z,2.53
2023-05-14T12:42:43.035Z,2.38
2023-05-14T12:45:10.427Z,2.65
2023-05-14T12:47:37.761Z,2.83
2023-05-14T12:50:06.183Z,3.03
2023-05-14T12:52:38.549Z,2.78
2023-05-14T12:55:07.749Z,3.15
2023-05-14T12:57:35.777Z,2.70
2023-05-14T13:00:07.142Z,2.50
2023-05-14T13:02:42.077Z,2.92
2023-05-14T13:05:11.739Z,2.50
2023-05-14T13:07:39.081Z,2.80
2023-05-14T13:10:06.896Z,3.05
2023-05-14T13:12:33.988Z,3.10
2023-05-14T13:15:01.173Z,3.10
2023-05-14T13:17:28.315Z,3.05
2023-05-14T13:19:55.350Z,3.00
2023-05-14T13:22:22.357Z,2.70
2023-05-14T13:24:49.182Z,2.75
2023-05-14T13:27:16.107Z,2.83
2023-05-14T13:29:43.257Z,2.53
2023-05-14T13:32:10.520Z,2.80
2023-05-14T13:34:37.481Z,3.15
2023-05-14T13:37:04.455Z,2.80
2023-05-14T13:39:31.417Z,2.78
2023-05-14T13:41:58.316Z,2.58
2023-05-14T13:44:25.290Z,2.40
2023-05-14T13:46:52.846Z,2.47
2023-05-14T13:49:19.786Z,2.75
2023-05-14T13:51:46.648Z,2.30
2023-05-14T13:54:13.559Z,2.63
2023-05-14T13:56:41.556Z,2.65
2023-05-14T13:59:08.462Z,3.47
2023-05-14T14:01:35.488Z,3.00
2023-05-14T14:04:02.608Z,2.92
2023-05-14T14:06:32.211Z,2.70
2023-05-14T14:08:59.203Z,2.88
2023-05-14T14:11:26.478Z,2.88
2023-05-14T14:13:55.053Z,3.10
2023-05-14T14:16:21.843Z,2.58
2023-05-14T14:18:48.905Z,2.63
2023-05-14T14:21:20.276Z,2.85
2023-05-14T14:23:47.742Z,3.10
2023-05-14T14:26:17.393Z,2.70
2023-05-14T14:28:45.212Z,2.97
2023-05-14T14:31:13.850Z,2.97
2023-05-14T14:33:43.734Z,2.85
2023-05-14T14:36:10.456Z,2.33
2023-05-14T14:38:43.272Z,3.10
2023-05-14T14:41:10.438Z,2.75
2023-05-14T14:43:40.443Z,2.53
2023-05-14T14:46:20.051Z,2.50
2023-05-14T14:48:47.203Z,2.50
2023-05-14T14:51:15.853Z,2.65
2023-05-14T14:53:42.642Z,2.90
2023-05-14T14:56:14.525Z,2.70
2023-05-14T14:58:41.446Z,2.67
2023-05-14T15:01:08.443Z,2.75
2023-05-14T15:03:35.530Z,2.72
2023-05-14T15:06:02.782Z,2.45
2023-05-14T15:08:29.724Z,2.58
2023-05-14T15:10:57.164Z,2.67
2023-05-14T15:13:24.849Z,2.70
2023-05-14T15:15:52.878Z,2.30
2023-05-14T15:18:19.993Z,2.55
2023-05-14T15:20:47.128Z,2.67
2023-05-14T15:23:14.241Z,2.90
2023-05-14T15:25:41.290Z,3.08
2023-05-14T15:28:08.374Z,2.80
2023-05-14T15:30:35.531Z,2.20
2023-05-14T15:33:02.880Z,2.20
2023-05-14T15:35:30.152Z,2.75
2023-05-14T15:37:59.904Z,2.70
2023-05-14T15:40:27.974Z,2.22
2023-05-14T15:42:54.893Z,2.58
2023-05-14T15:45:21.975Z,2.38
2023-05-14T15:47:48.810Z,3.28
2023-05-14T15:50:15.786Z,2.90
2023-05-14T15:52:42.793Z,2.63
2023-05-14T15:55:10.251Z,2.35
2023-05-14T15:57:37.174Z,2.65
2023-05-14T16:00:11.326Z,2.58
2023-05-14T16:02:40.075Z,2.40
2023-05-14T16:05:08.284Z,2.97
2023-05-14T16:07:35.673Z,2.38
2023-05-14T16:10:02.598Z,2.80
2023-05-14T16:12:29.601Z,2.58
2023-05-14T16:14:57.823Z,2.70
2023-05-14T16:17:24.790Z,2.58
2023-05-14T16:19:53.455Z,2.53
2023-05-14T16:22:22.121Z,2.38
2023-05-14T16:24:48.923Z,2.55
2023-05-14T16:27:18.426Z,2.58
2023-05-14T16:29:45.521Z,2.50
2023-05-14T16:32:12.621Z,2.67
2023-05-14T16:34:39.528Z,2.60
2023-05-14T16:37:16.921Z,3.00
2023-05-14T16:39:46.297Z,2.60
2023-05-14T16:42:13.283Z,2.50
2023-05-14T16:44:40.310Z,2.80
2023-05-14T16:47:09.860Z,2.78
2023-05-14T16:49:36.698Z,2.42
2023-05-14T16:52:03.739Z,2.67
2023-05-14T16:54:30.825Z,2.25
2023-05-14T16:56:57.879Z,1.90
2023-05-14T16:59:25.607Z,2.50
2023-05-14T17:01:52.884Z,2.50
2023-05-14T17:04:21.365Z,2.50
2023-05-14T17:06:48.521Z,2.78
2023-05-14T17:09:15.467Z,2.35
2023-05-14T17:11:42.712Z,2.33
2023-05-14T17:14:15.653Z,2.58
2023-05-14T17:16:42.842Z,2.33
2023-05-14T17:19:10.063Z,2.40
2023-05-14T17:21:37.074Z,2.50
2023-05-14T17:24:04.021Z,2.20
2023-05-14T17:26:31.049Z,2.50
2023-05-14T17:28:57.785Z,2.30
2023-05-14T17:31:24.989Z,2.20
2023-05-14T17:33:52.062Z,2.58
2023-05-14T17:36:19.086Z,2.40
2023-05-14T17:38:49.097Z,2.38
2023-05-14T17:41:16.220Z,2.22
2023-05-14T17:43:42.960Z,2.42
2023-05-14T17:46:10.059Z,2.45
2023-05-14T17:48:39.614Z,2.28
2023-05-14T17:51:10.247Z,2.78
2023-05-14T17:53:37.094Z,2.90
2023-05-14T17:56:09.062Z,2.70
2023-05-14T17:58:49.027Z,2.70
2023-05-14T18:01:18.168Z,2.72
2023-05-14T18:03:45.396Z,2.28
2023-05-14T18:06:12.468Z,2.45
2023-05-14T18:08:39.401Z,2.35
2023-05-14T18:11:15.715Z,3.03
2023-05-14T18:13:42.768Z,2.90
2023-05-14T18:16:12.474Z,2.55
2023-05-14T18:18:39.452Z,3.00
2023-05-14T18:21:06.633Z,2.83
2023-05-14T18:23:33.618Z,3.38
2023-05-14T18:26:04.844Z,3.03
2023-05-14T18:28:31.807Z,2.95
2023-05-14T18:30:58.751Z,2.92
2023-05-14T18:33:26.097Z,2.30
2023-05-14T18:35:53.722Z,3.50
2023-05-14T18:38:20.806Z,2.75
2023-05-14T18:40:47.728Z,2.75
2023-05-14T18:43:17.303Z,3.03
2023-05-14T18:45:48.539Z,4.10
2023-05-14T18:48:16.503Z,2.78
2023-05-14T18:50:44.516Z,3.00
2023-05-14T18:53:11.523Z,3.22
2023-05-14T18:55:38.493Z,2.70
2023-05-14T18:58:08.753Z,3.15
2023-05-14T19:00:35.592Z,3.00
2023-05-14T19:03:02.638Z,3.15
2023-05-14T19:05:29.799Z,3.53
2023-05-14T19:07:57.392Z,2.80
2023-05-14T19:10:24.384Z,3.10
2023-05-14T19:12:51.401Z,2.90
2023-05-14T19:15:18.484Z,3.08
2023-05-14T19:17:45.516Z,3.17
2023-05-14T19:20:12.768Z,3.30
2023-05-14T19:22:39.790Z,2.80
2023-05-14T19:25:07.971Z,2.83
2023-05-14T19:27:38.381Z,3.42
2023-05-14T19:30:05.693Z,3.13
2023-05-14T19:32:32.729Z,3.25
2023-05-14T19:34:59.720Z,3.05
2023-05-14T19:37:26.725Z,3.55
2023-05-14T19:39:53.625Z,3.40
2023-05-14T19:42:20.657Z,3.38
2023-05-14T19:44:47.688Z,3.58
2023-05-14T19:47:15.249Z,3.50
2023-05-14T19:49:42.441Z,3.17
2023-05-14T19:52:10.608Z,3.47
2023-05-14T19:54:37.558Z,3.60
2023-05-14T19:57:04.754Z,3.15
2023-05-14T19:59:31.848Z,3.30
2023-05-14T20:01:58.709Z,3.30
2023-05-14T20:04:26.256Z,3.25
2023-05-14T20:06:53.691Z,3.50
2023-05-14T20:09:20.766Z,3.92
2023-05-14T20:11:47.735Z,3.38
2023-05-14T20:14:14.616Z,3.83
2023-05-14T20:16:41.976Z,3.85
2023-05-14T20:19:09.063Z,3.00
2023-05-14T20:21:35.889Z,3.85
2023-05-14T20:24:03.018Z,3.13
2023-05-14T20:26:29.973Z,3.95
2023-05-14T20:28:56.931Z,4.82
2023-05-14T20:31:23.960Z,3.42
2023-05-14T20:33:51.030Z,3.85
2023-05-14T20:36:18.118Z,3.20
2023-05-14T20:38:44.978Z,3.75
2023-05-14T20:41:12.244Z,3.95
2023-05-14T20:43:41.587Z,3.90
2023-05-14T20:46:09.398Z,3.40
2023-05-14T20:48:50.162Z,3.40
2023-05-14T20:51:21.740Z,3.40
2023-05-14T20:53:49.017Z,3.40
2023-05-14T20:56:16.090Z,3.25
2023-05-14T20:58:42.922Z,3.53
2023-05-14T21:01:19.049Z,4.10
2023-05-14T21:03:46.283Z,4.30
2023-05-14T21:06:13.314Z,3.80
2023-05-14T21:08:40.727Z,4.18
2023-05-14T21:11:07.943Z,3.88
2023-05-14T21:13:34.707Z,4.03
2023-05-14T21:16:01.705Z,3.85
2023-05-14T21:18:30.887Z,4.03
2023-05-14T21:20:57.914Z,4.60
2023-05-14T21:23:25.024Z,4.70
2023-05-14T21:25:54.936Z,3.75
2023-05-14T21:28:22.582Z,4.97
2023-05-14T21:30:50.857Z,4.03
2023-05-14T21:33:18.310Z,3.90
2023-05-14T21:35:45.082Z,3.65
2023-05-14T21:38:12.111Z,4.18
2023-05-14T21:40:39.151Z,4.15
2023-05-14T21:43:06.217Z,3.78
2023-05-14T21:45:33.287Z,3.85
2023-05-14T21:48:00.126Z,3.60
2023-05-14T21:50:27.263Z,4.03
2023-05-14T21:52:54.157Z,4.40
2023-05-14T21:55:21.009Z,3.50
2023-05-14T21:57:47.922Z,3.60
2023-05-14T22:00:18.854Z,3.90
2023-05-14T22:02:45.804Z,3.80
2023-05-14T22:05:12.598Z,4.10
2023-05-14T22:07:39.508Z,4.18
2023-05-14T22:10:07.655Z,4.25
2023-05-14T22:12:34.690Z,4.25
2023-05-14T22:15:01.495Z,4.30
2023-05-14T22:17:28.432Z,4.00
2023-05-14T22:19:55.353Z,3.78
2023-05-14T22:22:22.295Z,3.70
2023-05-14T22:24:49.379Z,3.70
2023-05-14T22:27:16.238Z,4.07
2023-05-14T22:29:43.032Z,3.78
2023-05-14T22:32:10.351Z,3.75
2023-05-14T22:34:37.772Z,3.97
2023-05-14T22:37:05.810Z,3.97
2023-05-14T22:39:32.681Z,4.53
2023-05-14T22:41:59.684Z,3.80
2023-05-14T22:44:34.849Z,4.40
2023-05-14T22:49:32.335Z,3.67
2023-05-14T22:51:59.440Z,3.70
2023-05-14T22:54:26.781Z,4.18
2023-05-14T22:56:53.638Z,3.80
2023-05-14T22:59:22.704Z,4.00
2023-05-14T23:01:51.020Z,3.90
2023-05-14T23:04:18.131Z,3.97
2023-05-14T23:06:45.030Z,3.70
2023-05-14T23:09:16.966Z,4.28
2023-05-14T23:11:44.031Z,3.80
2023-05-14T23:14:11.277Z,4.05
2023-05-14T23:16:41.156Z,4.15
2023-05-14T23:19:08.222Z,3.78
2023-05-14T23:21:35.346Z,4.07
2023-05-14T23:24:02.175Z,4.05
2023-05-14T23:26:29.222Z,4.63
2023-05-14T23:28:58.313Z,4.07
2023-05-14T23:31:27.544Z,4.38
2023-05-14T23:33:54.489Z,4.32
2023-05-14T23:36:21.673Z,4.95
2023-05-14T23:38:48.919Z,4.18
2023-05-14T23:41:15.928Z,4.90
2023-05-14T23:43:45.367Z,4.18
2023-05-14T23:46:16.449Z,3.75
2023-05-14T23:48:43.713Z,3.97
2023-05-14T23:51:10.729Z,4.05
2023-05-14T23:53:37.775Z,4.22
2023-05-14T23:56:04.879Z,3.78
2023-05-14T23:58:33.199Z,5.40
